createdAt,value
2018-12-27T00:00:29.638Z,21.80
2018-12-27T00:02:55.386Z,24.57
2018-12-27T00:05:21.144Z,24.37
2018-12-27T00:07:46.907Z,24.53
2018-12-27T00:10:12.689Z,25.23
2018-12-27T00:12:38.444Z,24.33
2018-12-27T00:15:45.878Z,25.03
2018-12-27T00:18:11.637Z,23.60
2018-12-27T00:20:37.403Z,26.30
2018-12-27T00:23:03.163Z,25.93
2018-12-27T00:25:28.920Z,27.13
2018-12-27T00:27:54.815Z,27.93
2018-12-27T00:30:20.609Z,26.67
2018-12-27T00:32:46.361Z,29.97
2018-12-27T00:35:12.123Z,28.63
2018-12-27T00:37:37.893Z,30.90
2018-12-27T00:40:03.669Z,30.27
2018-12-27T00:42:29.419Z,32.13
2018-12-27T00:44:55.181Z,32.60
2018-12-27T00:47:20.941Z,32.83
2018-12-27T00:49:46.704Z,33.87
2018-12-27T00:52:12.477Z,36.17
2018-12-27T00:54:38.262Z,35.43
2018-12-27T00:57:04.029Z,34.20
2018-12-27T00:59:29.792Z,35.47
2018-12-27T01:01:55.568Z,38.10
2018-12-27T01:04:21.339Z,35.10
2018-12-27T01:06:47.111Z,38.67
2018-12-27T01:09:12.875Z,38.23
2018-12-27T01:11:38.652Z,39.43
2018-12-27T01:14:04.408Z,37.83
2018-12-27T01:16:30.173Z,38.37
2018-12-27T01:18:55.940Z,41.07
2018-12-27T01:21:21.722Z,40.80
2018-12-27T01:23:47.460Z,40.87
2018-12-27T01:26:13.227Z,41.27
2018-12-27T01:28:38.985Z,42.87
2018-12-27T01:31:04.752Z,39.40
2018-12-27T01:33:30.505Z,44.50
2018-12-27T01:35:56.279Z,45.23
2018-12-27T01:38:22.039Z,46.83
2018-12-27T01:40:47.803Z,44.07
2018-12-27T01:43:13.585Z,44.33
2018-12-27T01:45:59.260Z,46.10
2018-12-27T01:48:25.029Z,43.00
2018-12-27T01:50:50.783Z,49.33
2018-12-27T01:53:16.546Z,48.33
2018-12-27T01:55:42.308Z,44.77
2018-12-27T01:58:08.094Z,47.60
2018-12-27T02:00:33.853Z,46.63
2018-12-27T02:02:59.640Z,46.00
2018-12-27T02:05:25.385Z,50.00
2018-12-27T02:07:51.158Z,43.70
2018-12-27T02:10:16.906Z,49.10
2018-12-27T02:12:42.677Z,47.93
2018-12-27T02:15:08.424Z,47.40
2018-12-27T02:17:34.197Z,44.20
2018-12-27T02:19:59.946Z,44.87
2018-12-27T02:22:25.710Z,45.30
2018-12-27T02:24:51.464Z,45.37
2018-12-27T02:27:17.235Z,42.90
2018-12-27T02:29:42.989Z,42.13
2018-12-27T02:32:08.757Z,41.40
2018-12-27T02:34:34.513Z,44.70
2018-12-27T02:37:00.274Z,41.57
2018-12-27T02:39:26.028Z,42.60
2018-12-27T02:41:51.789Z,43.60
2018-12-27T02:44:17.557Z,44.47
2018-12-27T02:46:43.305Z,45.03
2018-12-27T02:49:09.072Z,41.77
2018-12-27T02:51:34.841Z,42.00
2018-12-27T02:54:00.608Z,43.20
2018-12-27T02:56:26.377Z,46.67
2018-12-27T02:58:52.172Z,40.33
2018-12-27T03:01:17.926Z,42.53
2018-12-27T03:03:44.222Z,40.83
2018-12-27T03:06:31.240Z,43.77
2018-12-27T03:08:57.013Z,39.87
2018-12-27T03:11:22.792Z,41.67
2018-12-27T03:13:48.569Z,38.63
2018-12-27T03:16:14.337Z,46.37
2018-12-27T03:18:40.106Z,43.23
2018-12-27T03:21:05.870Z,41.60
2018-12-27T03:23:31.642Z,40.27
2018-12-27T03:25:57.403Z,43.93
2018-12-27T03:28:23.174Z,43.00
2018-12-27T03:30:48.935Z,43.17
2018-12-27T03:33:14.717Z,45.87
2018-12-27T03:35:40.463Z,45.83
2018-12-27T03:38:06.219Z,46.87
2018-12-27T03:40:31.985Z,46.50
2018-12-27T03:42:57.742Z,47.07
2018-12-27T03:45:23.513Z,43.40
2018-12-27T03:47:49.273Z,45.07
2018-12-27T03:50:15.151Z,43.37
2018-12-27T03:52:40.921Z,43.33
2018-12-27T03:55:06.686Z,43.23
2018-12-27T03:57:32.467Z,44.80
2018-12-27T03:59:58.240Z,40.27
2018-12-27T04:02:23.997Z,42.10
2018-12-27T04:04:49.778Z,41.10
2018-12-27T04:07:15.543Z,41.97
2018-12-27T04:09:41.312Z,43.23
2018-12-27T04:12:07.067Z,40.67
2018-12-27T04:14:32.815Z,40.27
2018-12-27T04:16:58.575Z,41.43
2018-12-27T04:19:24.338Z,39.67
2018-12-27T04:21:50.104Z,41.87
2018-12-27T04:27:29.094Z,39.07
2018-12-27T04:29:54.891Z,37.60
2018-12-27T04:32:20.748Z,39.53
2018-12-27T04:34:46.599Z,35.67
2018-12-27T04:37:12.360Z,38.17
2018-12-27T04:39:38.117Z,36.47
2018-12-27T04:42:03.895Z,35.67
2018-12-27T04:44:29.757Z,35.63
2018-12-27T04:46:55.536Z,32.07
2018-12-27T04:49:21.299Z,33.27
2018-12-27T04:51:47.084Z,35.00
2018-12-27T04:54:12.852Z,33.10
2018-12-27T04:56:38.637Z,31.27
2018-12-27T04:59:04.429Z,30.87
2018-12-27T05:01:30.202Z,30.10
2018-12-27T05:03:55.953Z,31.90
2018-12-27T05:06:21.728Z,30.57
2018-12-27T05:08:47.504Z,29.80
2018-12-27T05:11:13.283Z,32.57
2018-12-27T05:13:39.043Z,29.97
2018-12-27T05:16:04.817Z,29.83
2018-12-27T05:18:30.583Z,29.93
2018-12-27T05:20:56.349Z,28.90
2018-12-27T05:23:22.137Z,29.67
2018-12-27T05:25:47.892Z,29.17
2018-12-27T05:28:13.673Z,30.17
2018-12-27T05:30:39.422Z,32.83
2018-12-27T05:33:05.757Z,31.23
2018-12-27T05:35:31.505Z,31.13
2018-12-27T05:37:57.282Z,29.77
2018-12-27T05:40:23.037Z,30.07
2018-12-27T05:42:48.829Z,31.00
2018-12-27T05:45:14.574Z,33.23
2018-12-27T05:47:40.341Z,28.10
2018-12-27T05:50:06.101Z,30.50
2018-12-27T05:52:31.883Z,29.70
2018-12-27T05:54:57.643Z,27.73
2018-12-27T05:57:23.617Z,29.40
2018-12-27T05:59:49.378Z,29.17
2018-12-27T06:02:15.163Z,30.47
2018-12-27T06:04:40.917Z,30.10
2018-12-27T06:07:06.673Z,28.27
2018-12-27T06:09:32.449Z,30.77
2018-12-27T06:11:58.227Z,28.03
2018-12-27T06:14:24.012Z,30.50
2018-12-27T06:16:49.784Z,29.77
2018-12-27T06:19:15.552Z,29.80
2018-12-27T06:21:41.326Z,29.13
2018-12-27T06:24:07.102Z,28.87
2018-12-27T06:26:32.880Z,29.50
2018-12-27T06:28:58.659Z,26.97
2018-12-27T06:31:24.412Z,26.23
2018-12-27T06:33:50.184Z,28.23
2018-12-27T06:36:15.951Z,27.87
2018-12-27T06:38:41.707Z,27.63
2018-12-27T06:41:07.463Z,27.07
2018-12-27T06:43:33.247Z,27.07
2018-12-27T06:45:59.020Z,27.27
2018-12-27T06:48:24.799Z,25.70
2018-12-27T06:50:50.567Z,26.27
2018-12-27T06:53:16.337Z,27.70
2018-12-27T06:56:01.992Z,26.23
2018-12-27T06:58:27.776Z,23.63
2018-12-27T07:00:53.526Z,24.93
2018-12-27T07:03:19.307Z,25.37
2018-12-27T07:05:45.195Z,27.40
2018-12-27T07:08:10.958Z,26.93
2018-12-27T07:10:36.736Z,25.23
2018-12-27T07:13:02.481Z,24.10
2018-12-27T07:15:28.251Z,26.73
2018-12-27T07:17:54.018Z,25.70
2018-12-27T07:20:19.803Z,25.53
2018-12-27T07:22:45.578Z,24.77
2018-12-27T07:25:11.341Z,27.13
2018-12-27T07:27:37.123Z,28.13
2018-12-27T07:30:44.554Z,28.27
2018-12-27T07:33:10.305Z,26.90
2018-12-27T07:35:36.065Z,25.50
2018-12-27T07:38:01.823Z,26.97
2018-12-27T07:40:27.610Z,28.50
2018-12-27T07:42:53.361Z,25.47
2018-12-27T07:45:19.133Z,29.27
2018-12-27T07:47:44.885Z,30.40
2018-12-27T07:50:10.653Z,30.43
2018-12-27T07:52:36.410Z,32.37
2018-12-27T07:55:43.849Z,34.63
2018-12-27T07:58:09.623Z,32.27
2018-12-27T08:00:35.395Z,32.70
2018-12-27T08:03:01.164Z,34.53
2018-12-27T08:05:26.939Z,37.50
2018-12-27T08:07:52.691Z,38.97
2018-12-27T08:10:18.445Z,37.33
2018-12-27T08:12:44.228Z,36.00
2018-12-27T08:15:09.985Z,39.23
2018-12-27T08:17:35.772Z,42.40
2018-12-27T08:23:08.745Z,39.90
2018-12-27T08:25:34.501Z,35.83
2018-12-27T08:28:00.283Z,39.03
2018-12-27T08:30:26.061Z,39.77
2018-12-27T08:32:51.831Z,39.87
2018-12-27T08:35:17.590Z,41.93
2018-12-27T08:37:43.368Z,38.87
2018-12-27T08:40:29.025Z,42.30
2018-12-27T08:42:54.800Z,40.57
2018-12-27T08:45:20.548Z,42.30
2018-12-27T08:47:46.344Z,39.83
2018-12-27T08:50:12.098Z,40.80
2018-12-27T08:52:37.866Z,37.60
2018-12-27T08:55:45.311Z,41.53
2018-12-27T08:58:11.108Z,41.63
2018-12-27T09:00:36.863Z,42.23
2018-12-27T09:03:02.645Z,41.13
2018-12-27T09:05:28.413Z,43.97
2018-12-27T09:07:54.170Z,43.90
2018-12-27T09:10:19.937Z,42.93
2018-12-27T09:12:45.713Z,40.60
2018-12-27T09:15:11.474Z,42.00
2018-12-27T09:17:37.238Z,43.03
2018-12-27T09:23:17.056Z,41.27
2018-12-27T09:25:42.837Z,41.03
2018-12-27T09:28:08.597Z,41.63
2018-12-27T09:30:34.365Z,43.87
2018-12-27T09:33:00.148Z,42.00
2018-12-27T09:35:45.807Z,40.37
2018-12-27T09:38:11.567Z,43.43
2018-12-27T09:40:37.341Z,43.23
2018-12-27T09:43:03.095Z,41.33
2018-12-27T09:45:28.884Z,42.20
2018-12-27T09:47:54.638Z,42.37
2018-12-27T09:50:20.412Z,42.10
2018-12-27T09:52:46.159Z,41.93
2018-12-27T09:55:11.934Z,42.47
2018-12-27T09:57:37.701Z,42.10
2018-12-27T10:00:45.150Z,42.27
2018-12-27T10:03:10.906Z,39.33
2018-12-27T10:05:36.690Z,39.57
2018-12-27T10:08:02.443Z,38.20
2018-12-27T10:10:28.229Z,43.10
2018-12-27T10:12:53.985Z,37.33
2018-12-27T10:15:19.798Z,39.87
2018-12-27T10:17:47.468Z,36.97
2018-12-27T10:20:13.234Z,36.43
2018-12-27T10:22:39.006Z,39.50
2018-12-27T10:25:46.449Z,37.67
2018-12-27T10:28:32.093Z,37.27
2018-12-27T10:30:59.952Z,37.67
2018-12-27T10:33:25.569Z,38.13
2018-12-27T10:35:51.319Z,34.57
2018-12-27T10:38:17.099Z,36.33
2018-12-27T10:40:42.851Z,38.33
2018-12-27T10:43:08.621Z,36.20
2018-12-27T10:45:34.377Z,39.73
2018-12-27T10:48:00.151Z,38.57
2018-12-27T10:50:25.926Z,40.43
2018-12-27T10:52:51.696Z,40.80
2018-12-27T10:55:17.453Z,41.23
2018-12-27T10:57:43.255Z,40.53
2018-12-27T11:00:50.687Z,42.00
2018-12-27T11:03:16.481Z,42.83
2018-12-27T11:05:48.411Z,40.23
2018-12-27T11:08:09.903Z,42.67
2018-12-27T11:10:35.672Z,42.57
2018-12-27T11:13:01.468Z,43.33
2018-12-27T11:15:27.243Z,43.27
2018-12-27T11:17:53.045Z,42.80
2018-12-27T11:20:18.802Z,42.47
2018-12-27T11:22:44.559Z,42.40
2018-12-27T11:25:10.337Z,43.97
2018-12-27T11:27:36.298Z,43.77
2018-12-27T11:30:02.270Z,43.27
2018-12-27T11:32:28.027Z,44.00
2018-12-27T11:34:53.808Z,44.03
2018-12-27T11:37:19.581Z,41.27
2018-12-27T11:39:45.354Z,42.83
2018-12-27T11:42:11.206Z,43.90
2018-12-27T11:44:37.034Z,44.57
2018-12-27T11:47:02.840Z,41.27
2018-12-27T11:49:28.834Z,43.00
2018-12-27T11:51:54.595Z,43.47
2018-12-27T11:54:40.264Z,44.27
2018-12-27T11:57:06.012Z,44.00
2018-12-27T11:59:31.794Z,44.67
2018-12-27T12:02:39.241Z,42.27
2018-12-27T12:05:46.702Z,44.97
2018-12-27T12:08:12.477Z,46.97
2018-12-27T12:10:38.244Z,45.77
2018-12-27T12:13:04.003Z,46.97
2018-12-27T12:15:29.772Z,43.43
2018-12-27T12:17:55.535Z,46.23
2018-12-27T12:20:21.315Z,44.10
2018-12-27T12:22:47.082Z,45.37
2018-12-27T12:25:12.869Z,45.70
2018-12-27T12:27:38.623Z,47.20
2018-12-27T12:30:46.059Z,46.13
2018-12-27T12:33:11.819Z,42.37
2018-12-27T12:35:37.598Z,44.40
2018-12-27T12:38:03.347Z,45.07
2018-12-27T12:40:29.136Z,45.13
2018-12-27T12:42:54.888Z,45.90
2018-12-27T12:45:20.642Z,47.07
2018-12-27T12:47:46.422Z,45.60
2018-12-27T12:50:12.228Z,45.40
2018-12-27T12:52:39.233Z,47.73
2018-12-27T12:55:05.674Z,39.97
2018-12-27T12:57:31.459Z,44.37
2018-12-27T12:59:57.211Z,46.93
2018-12-27T13:02:22.981Z,47.67
2018-12-27T13:04:48.740Z,46.30
2018-12-27T13:07:14.506Z,49.30
2018-12-27T13:09:40.265Z,45.13
2018-12-27T13:12:06.037Z,48.80
2018-12-27T13:14:31.793Z,46.23
2018-12-27T13:16:57.606Z,47.57
2018-12-27T13:19:23.356Z,49.10
2018-12-27T13:21:49.103Z,45.97
2018-12-27T13:24:14.897Z,48.33
2018-12-27T13:26:40.649Z,49.33
2018-12-27T13:29:06.420Z,50.43
2018-12-27T13:31:32.178Z,48.30
2018-12-27T13:33:57.948Z,52.20
2018-12-27T13:36:25.523Z,48.37
2018-12-27T13:38:51.407Z,51.13
2018-12-27T13:41:17.169Z,47.33
2018-12-27T13:43:42.938Z,47.27
2018-12-27T13:46:08.719Z,46.70
2018-12-27T13:48:34.509Z,48.77
2018-12-27T13:51:20.169Z,49.43
2018-12-27T13:53:45.938Z,46.03
2018-12-27T13:56:11.704Z,45.93
2018-12-27T13:58:37.495Z,45.10
2018-12-27T14:01:03.250Z,45.43
2018-12-27T14:03:29.042Z,45.17
2018-12-27T14:05:54.793Z,44.83
2018-12-27T14:08:20.549Z,47.30
2018-12-27T14:10:46.311Z,46.13
2018-12-27T14:13:12.097Z,44.70
2018-12-27T14:15:37.896Z,44.40
2018-12-27T14:18:03.653Z,43.60
2018-12-27T14:20:29.421Z,43.50
2018-12-27T14:22:55.189Z,43.80
2018-12-27T14:25:20.961Z,43.20
2018-12-27T14:27:46.756Z,42.03
2018-12-27T14:30:12.521Z,40.93
2018-12-27T14:32:38.300Z,41.73
2018-12-27T14:35:04.167Z,40.40
2018-12-27T14:37:29.947Z,41.53
2018-12-27T14:39:55.723Z,39.20
2018-12-27T14:42:21.748Z,38.37
2018-12-27T14:44:49.167Z,37.67
2018-12-27T14:47:14.951Z,38.93
2018-12-27T14:49:40.727Z,37.50
2018-12-27T14:52:06.478Z,38.53
2018-12-27T14:54:32.241Z,36.30
2018-12-27T14:56:59.074Z,37.50
2018-12-27T14:59:25.778Z,37.80
2018-12-27T15:01:51.529Z,39.77
2018-12-27T15:04:17.286Z,38.47
2018-12-27T15:06:47.262Z,37.03
2018-12-27T15:09:10.706Z,38.13
2018-12-27T15:11:36.467Z,39.43
2018-12-27T15:14:02.236Z,37.27
2018-12-27T15:16:28.008Z,36.43
2018-12-27T15:18:53.779Z,39.83
2018-12-27T15:21:19.548Z,40.53
2018-12-27T15:23:45.299Z,39.67
2018-12-27T15:26:11.071Z,40.07
2018-12-27T15:28:36.826Z,40.80
2018-12-27T15:31:02.590Z,40.70
2018-12-27T15:33:28.367Z,43.17
2018-12-27T15:35:54.153Z,40.63
2018-12-27T15:38:19.905Z,43.47
2018-12-27T15:40:45.675Z,41.90
2018-12-27T15:43:11.431Z,43.70
2018-12-27T15:45:37.199Z,46.40
2018-12-27T15:48:02.958Z,43.60
2018-12-27T15:50:28.741Z,42.33
2018-12-27T15:52:54.501Z,43.70
2018-12-27T15:55:20.285Z,43.70
2018-12-27T15:57:46.058Z,48.27
2018-12-27T16:00:11.830Z,46.97
2018-12-27T16:02:37.616Z,48.53
2018-12-27T16:05:03.484Z,47.60
2018-12-27T16:07:29.252Z,45.03
2018-12-27T16:09:55.015Z,46.57
2018-12-27T16:12:20.790Z,45.03
2018-12-27T16:14:46.541Z,45.80
2018-12-27T16:17:12.322Z,45.63
2018-12-27T16:19:38.098Z,46.73
2018-12-27T16:22:03.866Z,47.60
2018-12-27T16:24:29.631Z,45.97
2018-12-27T16:26:55.406Z,47.30
2018-12-27T16:29:21.182Z,45.47
2018-12-27T16:31:46.950Z,47.43
2018-12-27T16:34:12.709Z,46.10
2018-12-27T16:36:38.485Z,47.93
2018-12-27T16:39:45.924Z,46.33
2018-12-27T16:42:11.698Z,47.37
2018-12-27T16:44:37.448Z,44.33
2018-12-27T16:47:03.228Z,45.10
2018-12-27T16:49:28.974Z,42.90
2018-12-27T16:51:54.740Z,45.20
2018-12-27T16:54:20.497Z,45.87
2018-12-27T16:56:46.260Z,42.60
2018-12-27T16:59:12.060Z,45.33
2018-12-27T17:01:37.813Z,43.50
2018-12-27T17:04:03.597Z,43.77
2018-12-27T17:06:29.375Z,44.93
2018-12-27T17:08:55.145Z,45.67
2018-12-27T17:11:20.951Z,45.93
2018-12-27T17:13:46.706Z,42.70
2018-12-27T17:16:12.464Z,45.30
2018-12-27T17:18:38.328Z,46.00
2018-12-27T17:21:04.090Z,46.63
2018-12-27T17:23:29.860Z,45.67
2018-12-27T17:25:55.616Z,44.63
2018-12-27T17:28:21.382Z,48.10
2018-12-27T17:30:47.144Z,46.70
2018-12-27T17:33:12.931Z,46.40
2018-12-27T17:35:38.684Z,47.43
2018-12-27T17:38:04.469Z,48.60
2018-12-27T17:40:30.236Z,47.17
2018-12-27T17:42:56.001Z,48.87
2018-12-27T17:45:21.758Z,50.93
2018-12-27T17:47:47.529Z,52.83
2018-12-27T17:50:13.282Z,47.57
2018-12-27T17:52:39.059Z,51.57
2018-12-27T17:55:04.813Z,53.60
2018-12-27T17:57:30.595Z,52.83
2018-12-27T17:59:56.374Z,52.10
2018-12-27T18:02:22.140Z,52.30
2018-12-27T18:04:47.902Z,56.50
2018-12-27T18:07:13.670Z,57.47
2018-12-27T18:09:39.440Z,52.97
2018-12-27T18:12:05.399Z,54.30
2018-12-27T18:14:31.179Z,55.70
2018-12-27T18:16:56.950Z,56.60
2018-12-27T18:19:22.757Z,56.43
2018-12-27T18:21:48.510Z,56.77
2018-12-27T18:24:14.296Z,56.33
2018-12-27T18:26:40.082Z,51.97
2018-12-27T18:29:05.870Z,57.23
2018-12-27T18:31:31.621Z,47.77
2018-12-27T18:33:57.394Z,47.23
2018-12-27T18:36:23.180Z,47.63
2018-12-27T18:38:48.954Z,53.40
2018-12-27T18:41:14.710Z,45.47
2018-12-27T18:46:12.082Z,47.20
2018-12-27T18:48:37.848Z,41.63
2018-12-27T18:51:03.610Z,44.27
2018-12-27T18:53:29.380Z,44.43
2018-12-27T18:55:55.139Z,41.90
2018-12-27T18:58:20.924Z,37.17
2018-12-27T19:00:47.186Z,38.97
2018-12-27T19:03:12.928Z,40.77
2018-12-27T19:05:38.707Z,36.57
2018-12-27T19:08:04.498Z,39.23
2018-12-27T19:10:30.246Z,37.17
2018-12-27T19:13:15.898Z,37.60
2018-12-27T19:16:01.544Z,33.50
2018-12-27T19:18:27.358Z,22.50
2018-12-27T19:21:34.798Z,29.83
2018-12-27T19:24:00.787Z,27.43
2018-12-27T19:26:26.549Z,27.80
2018-12-27T19:28:52.323Z,29.53
2018-12-27T19:34:25.306Z,25.77
2018-12-27T19:36:51.078Z,29.97
2018-12-27T19:39:16.846Z,28.37
2018-12-27T19:41:42.607Z,30.10
2018-12-27T19:44:08.399Z,33.40
2018-12-27T19:46:34.159Z,29.83
2018-12-27T19:48:59.936Z,32.87
2018-12-27T19:51:25.713Z,36.97
2018-12-27T19:53:51.472Z,38.77
2018-12-27T19:56:17.254Z,42.23
2018-12-27T19:58:43.044Z,42.13
2018-12-27T20:01:08.935Z,43.40
2018-12-27T20:03:34.767Z,41.80
2018-12-27T20:06:00.534Z,41.67
2018-12-27T20:08:26.292Z,40.57
2018-12-27T20:10:52.078Z,42.50
2018-12-27T20:13:17.836Z,43.67
2018-12-27T20:15:43.617Z,41.33
2018-12-27T20:18:09.403Z,42.10
2018-12-27T20:20:35.181Z,41.40
2018-12-27T20:23:00.943Z,41.03
2018-12-27T20:25:26.823Z,45.60
2018-12-27T20:27:52.574Z,48.07
2018-12-27T20:30:18.344Z,55.07
2018-12-27T20:32:44.123Z,54.07
2018-12-27T20:35:09.900Z,51.77
2018-12-27T20:37:35.668Z,55.90
2018-12-27T20:40:01.441Z,53.10
2018-12-27T20:42:27.199Z,55.10
2018-12-27T20:44:52.966Z,54.43
2018-12-27T20:47:18.729Z,57.03
2018-12-27T20:49:44.511Z,58.30
2018-12-27T20:52:10.274Z,58.63
2018-12-27T20:54:36.039Z,55.60
2018-12-27T20:57:01.814Z,57.30
2018-12-27T20:59:27.608Z,53.13
2018-12-27T21:01:53.374Z,50.90
2018-12-27T21:04:19.140Z,53.07
2018-12-27T21:06:44.929Z,48.87
2018-12-27T21:09:10.690Z,51.20
2018-12-27T21:11:36.459Z,51.23
2018-12-27T21:14:02.218Z,47.60
2018-12-27T21:16:28.012Z,50.67
2018-12-27T21:18:53.760Z,53.50
2018-12-27T21:21:19.532Z,55.13
2018-12-27T21:23:45.282Z,51.93
2018-12-27T21:26:11.057Z,51.20
2018-12-27T21:28:36.816Z,52.00
2018-12-27T21:31:02.595Z,50.70
2018-12-27T21:33:28.346Z,51.00
2018-12-27T21:35:54.108Z,48.03
2018-12-27T21:38:21.579Z,44.23
2018-12-27T21:40:47.569Z,42.07
2018-12-27T21:43:13.326Z,37.67
2018-12-27T21:45:39.097Z,34.47
2018-12-27T21:48:04.869Z,35.03
2018-12-27T21:50:50.528Z,35.10
2018-12-27T21:53:16.308Z,36.20
2018-12-27T21:55:42.098Z,37.23
2018-12-27T21:58:07.869Z,32.83
2018-12-27T22:00:33.638Z,31.70
2018-12-27T22:02:59.413Z,35.53
2018-12-27T22:05:25.161Z,33.17
2018-12-27T22:07:50.922Z,32.97
2018-12-27T22:10:16.701Z,34.83
2018-12-27T22:12:42.469Z,31.03
2018-12-27T22:15:08.293Z,30.67
2018-12-27T22:17:34.057Z,29.77
2018-12-27T22:19:59.821Z,31.07
2018-12-27T22:22:25.602Z,29.37
2018-12-27T22:24:51.365Z,30.70
2018-12-27T22:27:17.150Z,22.80
2018-12-27T22:29:42.980Z,25.60
2018-12-27T22:32:08.772Z,25.40
2018-12-27T22:34:34.587Z,26.73
2018-12-27T22:37:00.360Z,25.83
2018-12-27T22:39:26.108Z,23.30
2018-12-27T22:41:51.913Z,21.33
2018-12-27T22:44:17.671Z,24.70
2018-12-27T22:46:43.429Z,25.73
2018-12-27T22:49:09.266Z,24.57
2018-12-27T22:51:35.022Z,25.87
2018-12-27T22:54:00.791Z,27.50
2018-12-27T22:56:26.552Z,27.10
2018-12-27T22:58:52.334Z,30.97
2018-12-27T23:01:18.085Z,30.37
2018-12-27T23:03:43.848Z,27.80
2018-12-27T23:06:09.618Z,28.97
2018-12-27T23:08:35.398Z,27.73
2018-12-27T23:11:01.159Z,33.80
2018-12-27T23:13:26.943Z,33.53
2018-12-27T23:15:52.710Z,31.50
2018-12-27T23:18:18.484Z,34.40
2018-12-27T23:20:44.240Z,32.30
2018-12-27T23:23:10.010Z,31.00
2018-12-27T23:25:35.765Z,31.80
2018-12-27T23:28:01.533Z,29.30
2018-12-27T23:30:27.300Z,30.20
2018-12-27T23:32:53.061Z,32.03
2018-12-27T23:35:18.937Z,27.80
2018-12-27T23:37:44.688Z,28.83
2018-12-27T23:40:10.454Z,30.80
2018-12-27T23:42:36.220Z,27.50
2018-12-27T23:45:02.089Z,28.20
2018-12-27T23:47:27.839Z,28.77
2018-12-27T23:49:53.613Z,27.27
2018-12-27T23:52:19.385Z,26.13
2018-12-27T23:54:45.146Z,29.83
2018-12-27T23:57:10.897Z,28.60
2018-12-27T23:59:36.684Z,30.47
